sensor_id;sensor_type;location;lat;lon;timestamp;temperature;humidity
43151;DHT22;28755;51.478;5.702;2022-09-27T00:01:07;10.50;99.90
43151;DHT22;28755;51.478;5.702;2022-09-27T00:03:32;10.60;99.90
43151;DHT22;28755;51.478;5.702;2022-09-27T00:06:12;10.50;99.90
43151;DHT22;28755;51.478;5.702;2022-09-27T00:08:39;10.50;99.90
43151;DHT22;28755;51.478;5.702;2022-09-27T00:11:08;10.50;99.90
43151;DHT22;28755;51.478;5.702;2022-09-27T00:13:37;10.50;99.90
43151;DHT22;28755;51.478;5.702;2022-09-27T00:16:04;10.50;99.90
43151;DHT22;28755;51.478;5.702;2022-09-27T00:18:30;10.50;99.90
43151;DHT22;28755;51.478;5.702;2022-09-27T00:21:06;10.50;99.90
43151;DHT22;28755;51.478;5.702;2022-09-27T00:23:32;10.50;99.90
43151;DHT22;28755;51.478;5.702;2022-09-27T00:25:59;10.60;99.90
43151;DHT22;28755;51.478;5.702;2022-09-27T00:28:25;10.60;99.90
43151;DHT22;28755;51.478;5.702;2022-09-27T00:30:52;10.60;99.90
43151;DHT22;28755;51.478;5.702;2022-09-27T00:33:18;10.60;99.90
43151;DHT22;28755;51.478;5.702;2022-09-27T00:35:44;10.60;99.90
43151;DHT22;28755;51.478;5.702;2022-09-27T00:38:10;10.60;99.90
43151;DHT22;28755;51.478;5.702;2022-09-27T00:40:36;10.70;99.90
43151;DHT22;28755;51.478;5.702;2022-09-27T00:43:02;10.60;99.90
43151;DHT22;28755;51.478;5.702;2022-09-27T00:45:27;10.70;99.90
43151;DHT22;28755;51.478;5.702;2022-09-27T00:48:02;10.60;99.90
43151;DHT22;28755;51.478;5.702;2022-09-27T00:50:36;10.60;99.90
43151;DHT22;28755;51.478;5.702;2022-09-27T00:53:17;10.60;99.90
43151;DHT22;28755;51.478;5.702;2022-09-27T00:55:51;10.60;99.90
43151;DHT22;28755;51.478;5.702;2022-09-27T00:58:19;10.50;99.90
43151;DHT22;28755;51.478;5.702;2022-09-27T01:00:49;10.60;99.90
43151;DHT22;28755;51.478;5.702;2022-09-27T01:03:25;10.50;99.90
43151;DHT22;28755;51.478;5.702;2022-09-27T01:05:52;10.70;99.90
43151;DHT22;28755;51.478;5.702;2022-09-27T01:08:19;10.50;99.90
43151;DHT22;28755;51.478;5.702;2022-09-27T01:10:53;10.60;99.90
43151;DHT22;28755;51.478;5.702;2022-09-27T01:13:29;10.60;99.90
43151;DHT22;28755;51.478;5.702;2022-09-27T01:16:09;10.60;99.90
43151;DHT22;28755;51.478;5.702;2022-09-27T01:21:39;10.50;99.90
43151;DHT22;28755;51.478;5.702;2022-09-27T01:24:10;10.50;99.90
43151;DHT22;28755;51.478;5.702;2022-09-27T01:27:02;10.50;99.90
43151;DHT22;28755;51.478;5.702;2022-09-27T01:29:57;10.50;99.90
43151;DHT22;28755;51.478;5.702;2022-09-27T01:32:36;10.60;99.90
43151;DHT22;28755;51.478;5.702;2022-09-27T01:40:57;10.40;99.90
43151;DHT22;28755;51.478;5.702;2022-09-27T01:43:38;10.40;99.90
43151;DHT22;28755;51.478;5.702;2022-09-27T01:46:11;10.40;99.90
43151;DHT22;28755;51.478;5.702;2022-09-27T01:48:45;10.40;99.90
43151;DHT22;28755;51.478;5.702;2022-09-27T01:51:18;10.30;99.90
43151;DHT22;28755;51.478;5.702;2022-09-27T01:53:55;10.30;99.90
43151;DHT22;28755;51.478;5.702;2022-09-27T01:56:28;10.30;99.90
43151;DHT22;28755;51.478;5.702;2022-09-27T01:59:13;10.20;99.90
43151;DHT22;28755;51.478;5.702;2022-09-27T02:01:41;10.30;99.90
43151;DHT22;28755;51.478;5.702;2022-09-27T02:04:11;10.30;99.90
43151;DHT22;28755;51.478;5.702;2022-09-27T02:06:42;10.30;99.90
43151;DHT22;28755;51.478;5.702;2022-09-27T02:09:12;10.30;99.90
43151;DHT22;28755;51.478;5.702;2022-09-27T02:11:41;10.20;99.90
43151;DHT22;28755;51.478;5.702;2022-09-27T02:14:48;10.20;99.90
43151;DHT22;28755;51.478;5.702;2022-09-27T02:17:27;10.20;99.90
43151;DHT22;28755;51.478;5.702;2022-09-27T02:20:12;10.20;99.90
43151;DHT22;28755;51.478;5.702;2022-09-27T02:22:43;10.20;99.90
43151;DHT22;28755;51.478;5.702;2022-09-27T02:25:40;10.20;99.90
43151;DHT22;28755;51.478;5.702;2022-09-27T02:30:49;10.10;99.90
43151;DHT22;28755;51.478;5.702;2022-09-27T02:33:15;10.10;99.90
43151;DHT22;28755;51.478;5.702;2022-09-27T02:35:40;10.10;99.90
43151;DHT22;28755;51.478;5.702;2022-09-27T02:38:06;10.10;99.90
43151;DHT22;28755;51.478;5.702;2022-09-27T02:40:35;10.10;99.90
43151;DHT22;28755;51.478;5.702;2022-09-27T02:43:02;10.10;99.90
43151;DHT22;28755;51.478;5.702;2022-09-27T02:45:59;10.20;99.90
43151;DHT22;28755;51.478;5.702;2022-09-27T02:54:25;9.90;99.90
43151;DHT22;28755;51.478;5.702;2022-09-27T02:57:03;9.90;99.90
43151;DHT22;28755;51.478;5.702;2022-09-27T03:00:04;9.90;99.90
43151;DHT22;28755;51.478;5.702;2022-09-27T03:05:17;9.90;99.90
43151;DHT22;28755;51.478;5.702;2022-09-27T03:07:44;9.80;99.90
43151;DHT22;28755;51.478;5.702;2022-09-27T03:10:19;9.90;99.90
43151;DHT22;28755;51.478;5.702;2022-09-27T03:12:45;9.80;99.90
43151;DHT22;28755;51.478;5.702;2022-09-27T03:15:11;9.80;99.90
43151;DHT22;28755;51.478;5.702;2022-09-27T03:17:36;9.80;99.90
43151;DHT22;28755;51.478;5.702;2022-09-27T03:20:02;9.70;99.90
43151;DHT22;28755;51.478;5.702;2022-09-27T03:22:28;9.70;99.90
43151;DHT22;28755;51.478;5.702;2022-09-27T03:24:53;9.70;99.90
43151;DHT22;28755;51.478;5.702;2022-09-27T03:27:19;9.70;99.90
43151;DHT22;28755;51.478;5.702;2022-09-27T03:29:44;9.70;99.90
43151;DHT22;28755;51.478;5.702;2022-09-27T03:32:10;9.60;99.90
43151;DHT22;28755;51.478;5.702;2022-09-27T03:34:36;9.60;99.90
43151;DHT22;28755;51.478;5.702;2022-09-27T03:37:01;9.50;99.90
43151;DHT22;28755;51.478;5.702;2022-09-27T03:39:27;9.50;99.90
43151;DHT22;28755;51.478;5.702;2022-09-27T03:41:52;9.50;99.90
43151;DHT22;28755;51.478;5.702;2022-09-27T03:44:18;9.60;99.90
43151;DHT22;28755;51.478;5.702;2022-09-27T03:46:43;9.50;99.90
43151;DHT22;28755;51.478;5.702;2022-09-27T03:49:09;9.50;99.90
43151;DHT22;28755;51.478;5.702;2022-09-27T03:51:35;9.50;99.90
43151;DHT22;28755;51.478;5.702;2022-09-27T03:54:00;9.50;99.90
43151;DHT22;28755;51.478;5.702;2022-09-27T03:56:26;9.50;99.90
43151;DHT22;28755;51.478;5.702;2022-09-27T03:58:52;9.50;99.90
43151;DHT22;28755;51.478;5.702;2022-09-27T04:01:17;9.40;99.90
43151;DHT22;28755;51.478;5.702;2022-09-27T04:03:43;9.50;99.90
43151;DHT22;28755;51.478;5.702;2022-09-27T04:06:09;9.60;99.90
43151;DHT22;28755;51.478;5.702;2022-09-27T04:08:35;9.60;99.90
43151;DHT22;28755;51.478;5.702;2022-09-27T04:11:01;9.60;99.90
43151;DHT22;28755;51.478;5.702;2022-09-27T04:13:28;9.60;99.90
43151;DHT22;28755;51.478;5.702;2022-09-27T04:15:53;9.70;99.90
43151;DHT22;28755;51.478;5.702;2022-09-27T04:18:19;9.70;99.90
43151;DHT22;28755;51.478;5.702;2022-09-27T04:20:44;9.70;99.90
43151;DHT22;28755;51.478;5.702;2022-09-27T04:23:10;9.80;99.90
43151;DHT22;28755;51.478;5.702;2022-09-27T04:25:36;9.80;99.90
43151;DHT22;28755;51.478;5.702;2022-09-27T04:28:04;9.80;99.90
43151;DHT22;28755;51.478;5.702;2022-09-27T04:30:31;9.90;99.90
43151;DHT22;28755;51.478;5.702;2022-09-27T04:32:56;9.80;99.90
43151;DHT22;28755;51.478;5.702;2022-09-27T04:35:22;9.80;99.90
43151;DHT22;28755;51.478;5.702;2022-09-27T04:38:06;9.80;99.90
43151;DHT22;28755;51.478;5.702;2022-09-27T04:40:35;9.70;99.90
43151;DHT22;28755;51.478;5.702;2022-09-27T04:43:01;9.70;99.90
43151;DHT22;28755;51.478;5.702;2022-09-27T04:45:29;9.80;99.90
43151;DHT22;28755;51.478;5.702;2022-09-27T04:47:54;9.70;99.90
43151;DHT22;28755;51.478;5.702;2022-09-27T04:50:20;9.60;99.90
43151;DHT22;28755;51.478;5.702;2022-09-27T04:52:49;9.60;99.90
43151;DHT22;28755;51.478;5.702;2022-09-27T04:55:15;9.60;99.90
43151;DHT22;28755;51.478;5.702;2022-09-27T04:57:41;9.60;99.90
43151;DHT22;28755;51.478;5.702;2022-09-27T05:00:07;9.60;99.90
43151;DHT22;28755;51.478;5.702;2022-09-27T05:02:33;9.60;99.90
43151;DHT22;28755;51.478;5.702;2022-09-27T05:04:58;9.60;99.90
43151;DHT22;28755;51.478;5.702;2022-09-27T05:07:26;9.60;99.90
43151;DHT22;28755;51.478;5.702;2022-09-27T05:09:51;9.60;99.90
43151;DHT22;28755;51.478;5.702;2022-09-27T05:12:17;9.60;99.90
43151;DHT22;28755;51.478;5.702;2022-09-27T05:14:43;9.70;99.90
43151;DHT22;28755;51.478;5.702;2022-09-27T05:17:09;9.60;99.90
43151;DHT22;28755;51.478;5.702;2022-09-27T05:19:35;9.50;99.90
43151;DHT22;28755;51.478;5.702;2022-09-27T05:22:00;9.50;99.90
43151;DHT22;28755;51.478;5.702;2022-09-27T05:24:26;9.60;99.90
43151;DHT22;28755;51.478;5.702;2022-09-27T05:26:58;9.50;99.90
43151;DHT22;28755;51.478;5.702;2022-09-27T05:29:24;9.50;99.90
43151;DHT22;28755;51.478;5.702;2022-09-27T05:31:49;9.50;99.90
43151;DHT22;28755;51.478;5.702;2022-09-27T05:34:15;9.50;99.90
43151;DHT22;28755;51.478;5.702;2022-09-27T05:36:42;9.50;99.90
43151;DHT22;28755;51.478;5.702;2022-09-27T05:39:08;9.50;99.90
43151;DHT22;28755;51.478;5.702;2022-09-27T05:41:33;9.50;99.90
43151;DHT22;28755;51.478;5.702;2022-09-27T05:43:59;9.50;99.90
43151;DHT22;28755;51.478;5.702;2022-09-27T05:46:25;9.50;99.90
43151;DHT22;28755;51.478;5.702;2022-09-27T05:48:51;9.40;99.90
43151;DHT22;28755;51.478;5.702;2022-09-27T05:51:16;9.50;99.90
43151;DHT22;28755;51.478;5.702;2022-09-27T05:53:43;9.40;99.90
43151;DHT22;28755;51.478;5.702;2022-09-27T05:56:09;9.40;99.90
43151;DHT22;28755;51.478;5.702;2022-09-27T05:58:34;9.40;99.90
43151;DHT22;28755;51.478;5.702;2022-09-27T06:01:00;9.40;99.90
43151;DHT22;28755;51.478;5.702;2022-09-27T06:03:25;9.50;99.90
43151;DHT22;28755;51.478;5.702;2022-09-27T06:05:51;9.40;99.90
43151;DHT22;28755;51.478;5.702;2022-09-27T06:08:17;9.40;99.90
43151;DHT22;28755;51.478;5.702;2022-09-27T06:10:44;9.60;99.90
43151;DHT22;28755;51.478;5.702;2022-09-27T06:13:13;9.50;99.90
43151;DHT22;28755;51.478;5.702;2022-09-27T06:15:41;9.40;99.90
43151;DHT22;28755;51.478;5.702;2022-09-27T06:18:12;9.50;99.90
43151;DHT22;28755;51.478;5.702;2022-09-27T06:20:39;9.50;99.90
43151;DHT22;28755;51.478;5.702;2022-09-27T06:23:11;9.50;99.90
43151;DHT22;28755;51.478;5.702;2022-09-27T06:25:37;9.50;99.90
43151;DHT22;28755;51.478;5.702;2022-09-27T06:28:03;9.60;99.90
43151;DHT22;28755;51.478;5.702;2022-09-27T06:30:29;9.50;99.90
43151;DHT22;28755;51.478;5.702;2022-09-27T06:32:59;9.50;99.90
43151;DHT22;28755;51.478;5.702;2022-09-27T06:35:26;9.50;99.90
43151;DHT22;28755;51.478;5.702;2022-09-27T06:37:52;9.50;99.90
43151;DHT22;28755;51.478;5.702;2022-09-27T06:40:19;9.50;99.90
43151;DHT22;28755;51.478;5.702;2022-09-27T06:42:44;9.60;99.90
43151;DHT22;28755;51.478;5.702;2022-09-27T06:45:11;9.60;99.90
43151;DHT22;28755;51.478;5.702;2022-09-27T06:47:36;9.60;99.90
43151;DHT22;28755;51.478;5.702;2022-09-27T06:50:03;9.60;99.90
43151;DHT22;28755;51.478;5.702;2022-09-27T06:52:30;9.60;99.90
43151;DHT22;28755;51.478;5.702;2022-09-27T06:54:56;9.70;99.90
43151;DHT22;28755;51.478;5.702;2022-09-27T06:57:21;9.70;99.90
43151;DHT22;28755;51.478;5.702;2022-09-27T07:00:06;9.70;99.90
43151;DHT22;28755;51.478;5.702;2022-09-27T07:02:49;9.70;99.90
43151;DHT22;28755;51.478;5.702;2022-09-27T07:05:15;9.70;99.90
43151;DHT22;28755;51.478;5.702;2022-09-27T07:07:41;9.80;99.90
43151;DHT22;28755;51.478;5.702;2022-09-27T07:10:09;9.70;99.90
43151;DHT22;28755;51.478;5.702;2022-09-27T07:12:35;9.80;99.90
43151;DHT22;28755;51.478;5.702;2022-09-27T07:15:02;9.80;99.90
43151;DHT22;28755;51.478;5.702;2022-09-27T07:17:28;9.80;99.90
43151;DHT22;28755;51.478;5.702;2022-09-27T07:19:54;9.70;99.90
43151;DHT22;28755;51.478;5.702;2022-09-27T07:22:19;9.60;99.90
43151;DHT22;28755;51.478;5.702;2022-09-27T07:24:45;9.70;99.90
43151;DHT22;28755;51.478;5.702;2022-09-27T07:27:11;9.70;99.90
43151;DHT22;28755;51.478;5.702;2022-09-27T07:29:36;9.60;99.90
43151;DHT22;28755;51.478;5.702;2022-09-27T07:32:03;9.60;99.90
43151;DHT22;28755;51.478;5.702;2022-09-27T07:34:28;9.70;99.90
43151;DHT22;28755;51.478;5.702;2022-09-27T07:36:58;9.70;99.90
43151;DHT22;28755;51.478;5.702;2022-09-27T07:39:25;9.70;99.90
43151;DHT22;28755;51.478;5.702;2022-09-27T07:41:50;9.70;99.90
43151;DHT22;28755;51.478;5.702;2022-09-27T07:44:16;9.80;99.90
43151;DHT22;28755;51.478;5.702;2022-09-27T07:46:42;9.90;99.90
43151;DHT22;28755;51.478;5.702;2022-09-27T07:49:08;9.90;99.90
43151;DHT22;28755;51.478;5.702;2022-09-27T07:51:33;9.90;99.90
43151;DHT22;28755;51.478;5.702;2022-09-27T07:53:59;10.00;99.90
43151;DHT22;28755;51.478;5.702;2022-09-27T07:56:27;10.10;99.90
43151;DHT22;28755;51.478;5.702;2022-09-27T07:58:53;10.10;99.90
43151;DHT22;28755;51.478;5.702;2022-09-27T08:01:19;10.10;99.90
43151;DHT22;28755;51.478;5.702;2022-09-27T08:03:45;10.00;99.90
43151;DHT22;28755;51.478;5.702;2022-09-27T08:06:10;10.10;99.90
43151;DHT22;28755;51.478;5.702;2022-09-27T08:08:37;10.10;99.90
43151;DHT22;28755;51.478;5.702;2022-09-27T08:11:13;10.20;99.90
43151;DHT22;28755;51.478;5.702;2022-09-27T08:13:41;10.20;99.90
43151;DHT22;28755;51.478;5.702;2022-09-27T08:16:06;10.30;99.90
43151;DHT22;28755;51.478;5.702;2022-09-27T08:18:32;10.30;99.90
43151;DHT22;28755;51.478;5.702;2022-09-27T08:20:59;10.30;99.90
43151;DHT22;28755;51.478;5.702;2022-09-27T08:23:25;10.50;99.90
43151;DHT22;28755;51.478;5.702;2022-09-27T08:25:52;10.40;99.90
43151;DHT22;28755;51.478;5.702;2022-09-27T08:28:18;10.40;99.90
43151;DHT22;28755;51.478;5.702;2022-09-27T08:30:43;10.40;99.90
43151;DHT22;28755;51.478;5.702;2022-09-27T08:33:09;10.30;99.90
43151;DHT22;28755;51.478;5.702;2022-09-27T08:35:35;10.40;99.90
43151;DHT22;28755;51.478;5.702;2022-09-27T08:38:01;10.40;99.90
43151;DHT22;28755;51.478;5.702;2022-09-27T08:46:31;10.50;99.90
43151;DHT22;28755;51.478;5.702;2022-09-27T08:49:23;10.40;99.90
43151;DHT22;28755;51.478;5.702;2022-09-27T08:51:52;10.40;99.90
43151;DHT22;28755;51.478;5.702;2022-09-27T08:54:27;10.40;99.90
43151;DHT22;28755;51.478;5.702;2022-09-27T08:57:02;10.50;99.90
43151;DHT22;28755;51.478;5.702;2022-09-27T08:59:34;10.40;99.90
43151;DHT22;28755;51.478;5.702;2022-09-27T09:02:02;10.50;99.90
43151;DHT22;28755;51.478;5.702;2022-09-27T09:04:35;10.50;99.90
43151;DHT22;28755;51.478;5.702;2022-09-27T09:07:41;10.60;99.90
43151;DHT22;28755;51.478;5.702;2022-09-27T09:16:25;10.60;99.90
43151;DHT22;28755;51.478;5.702;2022-09-27T09:19:08;10.60;99.90
43151;DHT22;28755;51.478;5.702;2022-09-27T09:25:13;10.70;99.90
43151;DHT22;28755;51.478;5.702;2022-09-27T09:27:57;10.70;99.90
43151;DHT22;28755;51.478;5.702;2022-09-27T09:38:46;10.90;99.90
43151;DHT22;28755;51.478;5.702;2022-09-27T09:43:51;10.90;99.90
43151;DHT22;28755;51.478;5.702;2022-09-27T09:46:26;11.00;99.90
43151;DHT22;28755;51.478;5.702;2022-09-27T09:48:57;10.90;99.90
43151;DHT22;28755;51.478;5.702;2022-09-27T09:51:39;10.80;99.90
43151;DHT22;28755;51.478;5.702;2022-09-27T09:54:14;11.00;99.90
43151;DHT22;28755;51.478;5.702;2022-09-27T09:56:55;11.00;99.90
43151;DHT22;28755;51.478;5.702;2022-09-27T09:59:26;10.90;99.90
43151;DHT22;28755;51.478;5.702;2022-09-27T10:01:57;11.00;99.90
43151;DHT22;28755;51.478;5.702;2022-09-27T10:04:26;10.90;99.90
43151;DHT22;28755;51.478;5.702;2022-09-27T10:06:52;10.70;99.90
43151;DHT22;28755;51.478;5.702;2022-09-27T10:09:25;10.80;99.90
43151;DHT22;28755;51.478;5.702;2022-09-27T10:11:51;10.90;99.90
43151;DHT22;28755;51.478;5.702;2022-09-27T10:14:19;10.90;99.90
43151;DHT22;28755;51.478;5.702;2022-09-27T10:16:48;11.00;99.90
43151;DHT22;28755;51.478;5.702;2022-09-27T10:19:22;11.00;99.90
43151;DHT22;28755;51.478;5.702;2022-09-27T10:21:51;11.10;99.90
43151;DHT22;28755;51.478;5.702;2022-09-27T10:24:17;11.20;99.90
43151;DHT22;28755;51.478;5.702;2022-09-27T10:26:46;11.10;99.90
43151;DHT22;28755;51.478;5.702;2022-09-27T10:29:23;10.90;99.90
43151;DHT22;28755;51.478;5.702;2022-09-27T10:31:49;11.00;99.90
43151;DHT22;28755;51.478;5.702;2022-09-27T10:34:40;11.00;99.90
43151;DHT22;28755;51.478;5.702;2022-09-27T10:37:15;11.00;99.90
43151;DHT22;28755;51.478;5.702;2022-09-27T10:39:43;11.00;99.90
43151;DHT22;28755;51.478;5.702;2022-09-27T10:42:36;11.00;99.90
43151;DHT22;28755;51.478;5.702;2022-09-27T10:45:24;10.90;99.90
43151;DHT22;28755;51.478;5.702;2022-09-27T10:47:51;10.60;99.90
43151;DHT22;28755;51.478;5.702;2022-09-27T10:50:25;10.70;99.90
43151;DHT22;28755;51.478;5.702;2022-09-27T10:53:14;10.70;99.90
43151;DHT22;28755;51.478;5.702;2022-09-27T10:55:42;10.60;99.90
43151;DHT22;28755;51.478;5.702;2022-09-27T11:03:22;10.50;99.90
43151;DHT22;28755;51.478;5.702;2022-09-27T11:05:50;10.60;99.90
43151;DHT22;28755;51.478;5.702;2022-09-27T11:11:00;10.50;99.90
43151;DHT22;28755;51.478;5.702;2022-09-27T11:13:26;10.60;99.90
43151;DHT22;28755;51.478;5.702;2022-09-27T11:16:24;10.60;99.90
43151;DHT22;28755;51.478;5.702;2022-09-27T11:22:37;10.50;99.90
43151;DHT22;28755;51.478;5.702;2022-09-27T11:28:13;10.80;99.90
43151;DHT22;28755;51.478;5.702;2022-09-27T11:36:13;11.30;99.90
43151;DHT22;28755;51.478;5.702;2022-09-27T11:41:30;11.60;99.90
43151;DHT22;28755;51.478;5.702;2022-09-27T11:52:33;11.60;99.90
43151;DHT22;28755;51.478;5.702;2022-09-27T12:01:00;11.80;99.90
43151;DHT22;28755;51.478;5.702;2022-09-27T12:03:51;12.10;99.90
43151;DHT22;28755;51.478;5.702;2022-09-27T12:06:21;12.40;99.90
43151;DHT22;28755;51.478;5.702;2022-09-27T12:09:31;12.60;99.90
43151;DHT22;28755;51.478;5.702;2022-09-27T12:11:56;13.20;99.90
43151;DHT22;28755;51.478;5.702;2022-09-27T12:17:04;13.60;99.90
43151;DHT22;28755;51.478;5.702;2022-09-27T12:19:39;13.10;99.90
43151;DHT22;28755;51.478;5.702;2022-09-27T12:22:12;13.20;99.90
43151;DHT22;28755;51.478;5.702;2022-09-27T12:24:38;13.50;99.90
43151;DHT22;28755;51.478;5.702;2022-09-27T12:27:09;13.40;99.90
43151;DHT22;28755;51.478;5.702;2022-09-27T12:29:41;13.60;99.90
43151;DHT22;28755;51.478;5.702;2022-09-27T12:32:17;13.70;99.90
43151;DHT22;28755;51.478;5.702;2022-09-27T12:34:55;13.70;99.90
43151;DHT22;28755;51.478;5.702;2022-09-27T12:37:31;13.40;99.90
43151;DHT22;28755;51.478;5.702;2022-09-27T12:43:08;14.10;99.90
43151;DHT22;28755;51.478;5.702;2022-09-27T12:51:10;13.50;99.90
43151;DHT22;28755;51.478;5.702;2022-09-27T13:05:07;12.40;99.90
43151;DHT22;28755;51.478;5.702;2022-09-27T13:10:42;12.70;99.90
43151;DHT22;28755;51.478;5.702;2022-09-27T13:13:14;12.60;99.90
43151;DHT22;28755;51.478;5.702;2022-09-27T13:15:43;12.40;99.90
43151;DHT22;28755;51.478;5.702;2022-09-27T13:21:04;12.10;99.90
43151;DHT22;28755;51.478;5.702;2022-09-27T13:33:41;12.10;99.90
43151;DHT22;28755;51.478;5.702;2022-09-27T13:49:43;12.70;99.90
43151;DHT22;28755;51.478;5.702;2022-09-27T13:52:28;12.80;99.90
43151;DHT22;28755;51.478;5.702;2022-09-27T13:55:00;12.80;99.90
43151;DHT22;28755;51.478;5.702;2022-09-27T13:57:45;12.80;99.90
43151;DHT22;28755;51.478;5.702;2022-09-27T14:00:23;12.60;99.90
43151;DHT22;28755;51.478;5.702;2022-09-27T14:03:04;12.80;99.90
43151;DHT22;28755;51.478;5.702;2022-09-27T14:05:39;12.80;99.90
43151;DHT22;28755;51.478;5.702;2022-09-27T14:08:06;12.70;99.90
43151;DHT22;28755;51.478;5.702;2022-09-27T14:10:42;12.60;99.90
43151;DHT22;28755;51.478;5.702;2022-09-27T14:13:08;12.70;99.90
43151;DHT22;28755;51.478;5.702;2022-09-27T14:15:34;12.70;99.90
43151;DHT22;28755;51.478;5.702;2022-09-27T14:18:00;12.70;99.90
43151;DHT22;28755;51.478;5.702;2022-09-27T14:20:36;12.60;99.90
43151;DHT22;28755;51.478;5.702;2022-09-27T14:23:04;12.60;99.90
43151;DHT22;28755;51.478;5.702;2022-09-27T14:25:30;12.50;99.90
43151;DHT22;28755;51.478;5.702;2022-09-27T14:27:56;12.40;99.90
43151;DHT22;28755;51.478;5.702;2022-09-27T14:30:26;12.30;99.90
43151;DHT22;28755;51.478;5.702;2022-09-27T14:32:54;12.40;99.90
43151;DHT22;28755;51.478;5.702;2022-09-27T14:35:29;12.30;99.90
43151;DHT22;28755;51.478;5.702;2022-09-27T14:38:28;12.30;99.90
43151;DHT22;28755;51.478;5.702;2022-09-27T14:41:00;12.20;99.90
43151;DHT22;28755;51.478;5.702;2022-09-27T14:43:27;12.10;99.90
43151;DHT22;28755;51.478;5.702;2022-09-27T14:45:59;11.90;99.90
43151;DHT22;28755;51.478;5.702;2022-09-27T14:48:30;11.90;99.90
43151;DHT22;28755;51.478;5.702;2022-09-27T14:51:03;11.80;99.90
43151;DHT22;28755;51.478;5.702;2022-09-27T14:53:33;11.80;99.90
43151;DHT22;28755;51.478;5.702;2022-09-27T14:56:00;11.80;99.90
43151;DHT22;28755;51.478;5.702;2022-09-27T14:58:27;11.80;99.90
43151;DHT22;28755;51.478;5.702;2022-09-27T15:00:54;11.90;99.90
43151;DHT22;28755;51.478;5.702;2022-09-27T15:03:31;12.00;99.90
43151;DHT22;28755;51.478;5.702;2022-09-27T15:05:58;12.00;99.90
43151;DHT22;28755;51.478;5.702;2022-09-27T15:08:27;12.00;99.90
43151;DHT22;28755;51.478;5.702;2022-09-27T15:10:59;11.80;99.90
43151;DHT22;28755;51.478;5.702;2022-09-27T15:13:25;11.80;99.90
43151;DHT22;28755;51.478;5.702;2022-09-27T15:15:52;11.80;99.90
43151;DHT22;28755;51.478;5.702;2022-09-27T15:20:57;11.80;99.90
43151;DHT22;28755;51.478;5.702;2022-09-27T15:23:27;11.80;99.90
43151;DHT22;28755;51.478;5.702;2022-09-27T15:26:03;11.90;99.90
43151;DHT22;28755;51.478;5.702;2022-09-27T15:28:31;11.90;99.90
43151;DHT22;28755;51.478;5.702;2022-09-27T15:30:59;12.00;99.90
43151;DHT22;28755;51.478;5.702;2022-09-27T15:33:28;12.20;99.90
43151;DHT22;28755;51.478;5.702;2022-09-27T15:36:02;12.00;99.90
43151;DHT22;28755;51.478;5.702;2022-09-27T15:38:32;11.90;99.90
43151;DHT22;28755;51.478;5.702;2022-09-27T15:41:14;11.80;99.90
43151;DHT22;28755;51.478;5.702;2022-09-27T15:43:41;11.70;99.90
43151;DHT22;28755;51.478;5.702;2022-09-27T15:46:28;11.60;99.90
43151;DHT22;28755;51.478;5.702;2022-09-27T15:51:55;11.50;99.90
43151;DHT22;28755;51.478;5.702;2022-09-27T15:54:23;11.60;99.90
43151;DHT22;28755;51.478;5.702;2022-09-27T15:56:50;11.60;99.90
43151;DHT22;28755;51.478;5.702;2022-09-27T16:01:46;11.50;99.90
43151;DHT22;28755;51.478;5.702;2022-09-27T16:04:12;11.50;99.90
43151;DHT22;28755;51.478;5.702;2022-09-27T16:06:37;11.40;99.90
43151;DHT22;28755;51.478;5.702;2022-09-27T16:09:04;11.40;99.90
43151;DHT22;28755;51.478;5.702;2022-09-27T16:11:29;11.40;99.90
43151;DHT22;28755;51.478;5.702;2022-09-27T16:13:55;11.20;99.90
43151;DHT22;28755;51.478;5.702;2022-09-27T16:16:21;11.20;99.90
43151;DHT22;28755;51.478;5.702;2022-09-27T16:18:47;11.10;99.90
43151;DHT22;28755;51.478;5.702;2022-09-27T16:21:13;11.00;99.90
43151;DHT22;28755;51.478;5.702;2022-09-27T16:23:38;10.90;99.90
43151;DHT22;28755;51.478;5.702;2022-09-27T16:26:04;10.90;99.90
43151;DHT22;28755;51.478;5.702;2022-09-27T16:28:31;10.80;99.90
43151;DHT22;28755;51.478;5.702;2022-09-27T16:31:06;10.80;99.90
43151;DHT22;28755;51.478;5.702;2022-09-27T16:33:32;10.90;99.90
43151;DHT22;28755;51.478;5.702;2022-09-27T16:35:59;10.80;99.90
43151;DHT22;28755;51.478;5.702;2022-09-27T16:38:27;10.80;99.90
43151;DHT22;28755;51.478;5.702;2022-09-27T16:40:59;10.80;99.90
43151;DHT22;28755;51.478;5.702;2022-09-27T16:43:26;10.80;99.90
43151;DHT22;28755;51.478;5.702;2022-09-27T16:45:52;10.80;99.90
43151;DHT22;28755;51.478;5.702;2022-09-27T16:48:17;10.80;99.90
43151;DHT22;28755;51.478;5.702;2022-09-27T16:50:43;10.70;99.90
43151;DHT22;28755;51.478;5.702;2022-09-27T16:53:27;10.70;99.90
43151;DHT22;28755;51.478;5.702;2022-09-27T16:55:58;10.70;99.90
43151;DHT22;28755;51.478;5.702;2022-09-27T16:58:24;10.70;99.90
43151;DHT22;28755;51.478;5.702;2022-09-27T17:00:49;10.70;99.90
43151;DHT22;28755;51.478;5.702;2022-09-27T17:03:15;10.60;99.90
43151;DHT22;28755;51.478;5.702;2022-09-27T17:05:40;10.70;99.90
43151;DHT22;28755;51.478;5.702;2022-09-27T17:08:06;10.50;99.90
43151;DHT22;28755;51.478;5.702;2022-09-27T17:10:31;10.50;99.90
43151;DHT22;28755;51.478;5.702;2022-09-27T17:12:57;10.50;99.90
43151;DHT22;28755;51.478;5.702;2022-09-27T17:15:24;10.50;99.90
43151;DHT22;28755;51.478;5.702;2022-09-27T17:17:50;10.40;99.90
43151;DHT22;28755;51.478;5.702;2022-09-27T17:20:16;10.50;99.90
43151;DHT22;28755;51.478;5.702;2022-09-27T17:22:42;10.50;99.90
43151;DHT22;28755;51.478;5.702;2022-09-27T17:25:08;10.50;99.90
43151;DHT22;28755;51.478;5.702;2022-09-27T17:27:33;10.50;99.90
43151;DHT22;28755;51.478;5.702;2022-09-27T17:29:59;10.50;99.90
43151;DHT22;28755;51.478;5.702;2022-09-27T17:32:24;10.50;99.90
43151;DHT22;28755;51.478;5.702;2022-09-27T17:34:50;10.40;99.90
43151;DHT22;28755;51.478;5.702;2022-09-27T17:37:16;10.40;99.90
43151;DHT22;28755;51.478;5.702;2022-09-27T17:39:42;10.40;99.90
43151;DHT22;28755;51.478;5.702;2022-09-27T17:42:07;10.40;99.90
43151;DHT22;28755;51.478;5.702;2022-09-27T17:44:33;10.30;99.90
43151;DHT22;28755;51.478;5.702;2022-09-27T17:46:59;10.30;99.90
43151;DHT22;28755;51.478;5.702;2022-09-27T17:49:43;10.30;99.90
43151;DHT22;28755;51.478;5.702;2022-09-27T17:52:27;10.20;99.90
43151;DHT22;28755;51.478;5.702;2022-09-27T17:54:53;10.20;99.90
43151;DHT22;28755;51.478;5.702;2022-09-27T17:57:20;10.10;99.90
43151;DHT22;28755;51.478;5.702;2022-09-27T17:59:46;10.10;99.90
43151;DHT22;28755;51.478;5.702;2022-09-27T18:02:12;10.10;99.90
43151;DHT22;28755;51.478;5.702;2022-09-27T18:04:37;10.00;99.90
43151;DHT22;28755;51.478;5.702;2022-09-27T18:07:03;10.10;99.90
43151;DHT22;28755;51.478;5.702;2022-09-27T18:09:28;10.00;99.90
43151;DHT22;28755;51.478;5.702;2022-09-27T18:11:54;10.00;99.90
43151;DHT22;28755;51.478;5.702;2022-09-27T18:14:22;9.90;99.90
43151;DHT22;28755;51.478;5.702;2022-09-27T18:16:48;9.90;99.90